sensor_id;sensor_type;location;lat;lon;timestamp;P1;durP1;ratioP1;P2;durP2;ratioP2
20794;SDS011;28087;-33.874;151.240;2022-10-26T00:00:38;4.90;;;1.60;;
20794;SDS011;28087;-33.874;151.240;2022-10-26T00:03:15;6.82;;;1.80;;
20794;SDS011;28087;-33.874;151.240;2022-10-26T00:05:50;4.93;;;1.70;;
20794;SDS011;28087;-33.874;151.240;2022-10-26T00:08:25;6.32;;;1.60;;
20794;SDS011;28087;-33.874;151.240;2022-10-26T00:11:01;7.72;;;2.10;;
20794;SDS011;28087;-33.874;151.240;2022-10-26T00:13:37;7.38;;;2.00;;
20794;SDS011;28087;-33.874;151.240;2022-10-26T00:16:16;7.55;;;2.03;;
20794;SDS011;28087;-33.874;151.240;2022-10-26T00:18:53;10.00;;;1.90;;
20794;SDS011;28087;-33.874;151.240;2022-10-26T00:21:28;5.18;;;1.60;;
20794;SDS011;28087;-33.874;151.240;2022-10-26T00:24:03;6.18;;;1.73;;
20794;SDS011;28087;-33.874;151.240;2022-10-26T00:26:38;6.47;;;1.80;;
20794;SDS011;28087;-33.874;151.240;2022-10-26T00:29:14;8.27;;;2.00;;
20794;SDS011;28087;-33.874;151.240;2022-10-26T00:31:51;6.85;;;1.88;;
20794;SDS011;28087;-33.874;151.240;2022-10-26T00:34:27;7.38;;;1.80;;
20794;SDS011;28087;-33.874;151.240;2022-10-26T00:37:02;6.28;;;1.98;;
20794;SDS011;28087;-33.874;151.240;2022-10-26T00:39:42;3.58;;;1.10;;
20794;SDS011;28087;-33.874;151.240;2022-10-26T00:42:19;5.95;;;1.40;;
20794;SDS011;28087;-33.874;151.240;2022-10-26T00:44:57;3.47;;;1.20;;
20794;SDS011;28087;-33.874;151.240;2022-10-26T00:47:54;6.22;;;1.38;;
20794;SDS011;28087;-33.874;151.240;2022-10-26T00:50:32;3.22;;;0.90;;
20794;SDS011;28087;-33.874;151.240;2022-10-26T00:53:09;6.00;;;1.20;;
20794;SDS011;28087;-33.874;151.240;2022-10-26T00:55:46;2.50;;;0.90;;
20794;SDS011;28087;-33.874;151.240;2022-10-26T00:58:23;3.72;;;0.80;;
20794;SDS011;28087;-33.874;151.240;2022-10-26T01:00:59;1.73;;;0.80;;
20794;SDS011;28087;-33.874;151.240;2022-10-26T01:03:36;1.70;;;0.73;;
20794;SDS011;28087;-33.874;151.240;2022-10-26T01:06:12;2.88;;;0.68;;
20794;SDS011;28087;-33.874;151.240;2022-10-26T01:08:48;1.88;;;0.68;;
20794;SDS011;28087;-33.874;151.240;2022-10-26T01:11:23;1.15;;;0.50;;
20794;SDS011;28087;-33.874;151.240;2022-10-26T01:13:59;3.75;;;0.80;;
20794;SDS011;28087;-33.874;151.240;2022-10-26T01:16:41;3.58;;;0.80;;
20794;SDS011;28087;-33.874;151.240;2022-10-26T01:19:41;2.75;;;0.70;;
20794;SDS011;28087;-33.874;151.240;2022-10-26T01:22:41;0.73;;;0.50;;
20794;SDS011;28087;-33.874;151.240;2022-10-26T01:25:26;1.60;;;0.60;;
20794;SDS011;28087;-33.874;151.240;2022-10-26T01:28:18;1.45;;;0.70;;
20794;SDS011;28087;-33.874;151.240;2022-10-26T01:31:05;2.45;;;0.40;;
20794;SDS011;28087;-33.874;151.240;2022-10-26T01:33:49;1.90;;;0.45;;
20794;SDS011;28087;-33.874;151.240;2022-10-26T01:36:28;0.77;;;0.50;;
20794;SDS011;28087;-33.874;151.240;2022-10-26T01:39:09;1.25;;;0.50;;
20794;SDS011;28087;-33.874;151.240;2022-10-26T01:41:51;2.33;;;0.60;;
20794;SDS011;28087;-33.874;151.240;2022-10-26T01:44:29;3.72;;;0.80;;
20794;SDS011;28087;-33.874;151.240;2022-10-26T01:47:14;1.63;;;0.70;;
20794;SDS011;28087;-33.874;151.240;2022-10-26T01:49:51;1.80;;;0.57;;
20794;SDS011;28087;-33.874;151.240;2022-10-26T01:52:29;1.02;;;0.60;;
20794;SDS011;28087;-33.874;151.240;2022-10-26T01:55:05;2.80;;;0.70;;
20794;SDS011;28087;-33.874;151.240;2022-10-26T01:57:59;1.38;;;0.60;;
20794;SDS011;28087;-33.874;151.240;2022-10-26T02:00:43;2.38;;;0.60;;
20794;SDS011;28087;-33.874;151.240;2022-10-26T02:03:26;2.28;;;0.70;;
20794;SDS011;28087;-33.874;151.240;2022-10-26T02:06:08;0.88;;;0.60;;
20794;SDS011;28087;-33.874;151.240;2022-10-26T02:08:55;3.95;;;0.80;;
20794;SDS011;28087;-33.874;151.240;2022-10-26T02:11:39;0.95;;;0.55;;
20794;SDS011;28087;-33.874;151.240;2022-10-26T02:14:17;3.13;;;0.70;;
20794;SDS011;28087;-33.874;151.240;2022-10-26T02:16:57;2.20;;;0.68;;
20794;SDS011;28087;-33.874;151.240;2022-10-26T02:19:39;1.10;;;0.60;;
20794;SDS011;28087;-33.874;151.240;2022-10-26T02:22:18;7.80;;;1.38;;
20794;SDS011;28087;-33.874;151.240;2022-10-26T02:24:57;7.75;;;2.20;;
20794;SDS011;28087;-33.874;151.240;2022-10-26T02:27:37;2.88;;;0.82;;
20794;SDS011;28087;-33.874;151.240;2022-10-26T02:30:16;2.70;;;0.77;;
20794;SDS011;28087;-33.874;151.240;2022-10-26T02:32:52;2.97;;;0.70;;
20794;SDS011;28087;-33.874;151.240;2022-10-26T02:35:31;4.35;;;0.70;;
20794;SDS011;28087;-33.874;151.240;2022-10-26T02:38:10;1.67;;;0.80;;
20794;SDS011;28087;-33.874;151.240;2022-10-26T02:40:49;6.35;;;1.48;;
20794;SDS011;28087;-33.874;151.240;2022-10-26T02:43:27;5.05;;;3.30;;
20794;SDS011;28087;-33.874;151.240;2022-10-26T02:46:09;3.95;;;1.73;;
20794;SDS011;28087;-33.874;151.240;2022-10-26T02:48:49;3.00;;;1.15;;
20794;SDS011;28087;-33.874;151.240;2022-10-26T02:51:27;3.05;;;1.20;;
20794;SDS011;28087;-33.874;151.240;2022-10-26T02:54:23;2.65;;;0.90;;
20794;SDS011;28087;-33.874;151.240;2022-10-26T02:57:03;2.45;;;0.70;;
20794;SDS011;28087;-33.874;151.240;2022-10-26T02:59:43;4.43;;;0.70;;
20794;SDS011;28087;-33.874;151.240;2022-10-26T03:02:19;3.25;;;0.80;;
20794;SDS011;28087;-33.874;151.240;2022-10-26T03:04:55;3.55;;;1.13;;
20794;SDS011;28087;-33.874;151.240;2022-10-26T03:07:40;2.03;;;0.70;;
20794;SDS011;28087;-33.874;151.240;2022-10-26T03:10:15;1.40;;;0.60;;
20794;SDS011;28087;-33.874;151.240;2022-10-26T03:12:51;2.40;;;0.60;;
20794;SDS011;28087;-33.874;151.240;2022-10-26T03:15:27;5.90;;;3.20;;
20794;SDS011;28087;-33.874;151.240;2022-10-26T03:18:04;5.65;;;1.77;;
20794;SDS011;28087;-33.874;151.240;2022-10-26T03:20:42;2.00;;;0.85;;
20794;SDS011;28087;-33.874;151.240;2022-10-26T03:23:19;2.50;;;0.88;;
20794;SDS011;28087;-33.874;151.240;2022-10-26T03:25:55;1.35;;;0.70;;
20794;SDS011;28087;-33.874;151.240;2022-10-26T03:28:31;1.90;;;0.80;;
20794;SDS011;28087;-33.874;151.240;2022-10-26T03:31:07;1.20;;;0.60;;
20794;SDS011;28087;-33.874;151.240;2022-10-26T03:33:42;1.08;;;0.65;;
20794;SDS011;28087;-33.874;151.240;2022-10-26T03:36:17;3.10;;;0.70;;
20794;SDS011;28087;-33.874;151.240;2022-10-26T03:38:54;2.70;;;0.60;;
20794;SDS011;28087;-33.874;151.240;2022-10-26T03:41:30;2.38;;;0.60;;
20794;SDS011;28087;-33.874;151.240;2022-10-26T03:44:10;0.50;;;0.50;;
20794;SDS011;28087;-33.874;151.240;2022-10-26T03:46:45;1.85;;;0.50;;
20794;SDS011;28087;-33.874;151.240;2022-10-26T03:49:22;1.20;;;0.60;;
20794;SDS011;28087;-33.874;151.240;2022-10-26T03:52:08;3.22;;;0.68;;
20794;SDS011;28087;-33.874;151.240;2022-10-26T03:54:49;0.75;;;0.50;;
20794;SDS011;28087;-33.874;151.240;2022-10-26T03:57:24;1.48;;;0.57;;
20794;SDS011;28087;-33.874;151.240;2022-10-26T04:00:00;1.48;;;0.80;;
20794;SDS011;28087;-33.874;151.240;2022-10-26T04:02:39;0.60;;;0.50;;
20794;SDS011;28087;-33.874;151.240;2022-10-26T04:05:16;0.85;;;0.60;;
20794;SDS011;28087;-33.874;151.240;2022-10-26T04:07:52;0.98;;;0.50;;
20794;SDS011;28087;-33.874;151.240;2022-10-26T04:10:30;1.38;;;0.70;;
20794;SDS011;28087;-33.874;151.240;2022-10-26T04:13:05;2.03;;;0.60;;
20794;SDS011;28087;-33.874;151.240;2022-10-26T04:15:42;0.57;;;0.50;;
20794;SDS011;28087;-33.874;151.240;2022-10-26T04:18:18;1.60;;;0.50;;
20794;SDS011;28087;-33.874;151.240;2022-10-26T04:20:53;1.40;;;0.63;;
20794;SDS011;28087;-33.874;151.240;2022-10-26T04:23:29;1.55;;;0.60;;
20794;SDS011;28087;-33.874;151.240;2022-10-26T04:26:06;0.80;;;0.60;;
20794;SDS011;28087;-33.874;151.240;2022-10-26T04:28:42;2.15;;;0.55;;
20794;SDS011;28087;-33.874;151.240;2022-10-26T04:31:17;0.98;;;0.57;;
20794;SDS011;28087;-33.874;151.240;2022-10-26T04:33:53;1.42;;;0.60;;
20794;SDS011;28087;-33.874;151.240;2022-10-26T04:36:28;1.77;;;0.50;;
20794;SDS011;28087;-33.874;151.240;2022-10-26T04:39:05;2.35;;;0.70;;
20794;SDS011;28087;-33.874;151.240;2022-10-26T04:41:43;2.50;;;0.73;;
20794;SDS011;28087;-33.874;151.240;2022-10-26T04:44:18;1.15;;;0.60;;
20794;SDS011;28087;-33.874;151.240;2022-10-26T04:46:53;1.23;;;0.50;;
20794;SDS011;28087;-33.874;151.240;2022-10-26T04:49:29;2.22;;;0.68;;
20794;SDS011;28087;-33.874;151.240;2022-10-26T04:52:04;2.65;;;0.60;;
20794;SDS011;28087;-33.874;151.240;2022-10-26T04:54:40;2.28;;;0.60;;
20794;SDS011;28087;-33.874;151.240;2022-10-26T04:57:17;0.95;;;0.70;;
20794;SDS011;28087;-33.874;151.240;2022-10-26T04:59:52;2.25;;;0.63;;
20794;SDS011;28087;-33.874;151.240;2022-10-26T05:02:27;1.15;;;0.60;;
20794;SDS011;28087;-33.874;151.240;2022-10-26T05:05:03;2.45;;;0.65;;
20794;SDS011;28087;-33.874;151.240;2022-10-26T05:07:43;1.73;;;0.60;;
20794;SDS011;28087;-33.874;151.240;2022-10-26T05:10:25;1.15;;;0.60;;
20794;SDS011;28087;-33.874;151.240;2022-10-26T05:13:08;1.20;;;0.63;;
20794;SDS011;28087;-33.874;151.240;2022-10-26T05:15:44;0.60;;;0.50;;
20794;SDS011;28087;-33.874;151.240;2022-10-26T05:18:23;1.05;;;0.70;;
20794;SDS011;28087;-33.874;151.240;2022-10-26T05:20:59;1.42;;;0.70;;
20794;SDS011;28087;-33.874;151.240;2022-10-26T05:23:34;1.00;;;0.70;;
20794;SDS011;28087;-33.874;151.240;2022-10-26T05:26:09;3.25;;;0.80;;
20794;SDS011;28087;-33.874;151.240;2022-10-26T05:28:46;1.83;;;0.70;;
20794;SDS011;28087;-33.874;151.240;2022-10-26T05:31:25;1.15;;;0.60;;
20794;SDS011;28087;-33.874;151.240;2022-10-26T05:34:02;1.98;;;0.63;;
20794;SDS011;28087;-33.874;151.240;2022-10-26T05:36:37;0.60;;;0.55;;
20794;SDS011;28087;-33.874;151.240;2022-10-26T05:39:12;1.05;;;0.60;;
20794;SDS011;28087;-33.874;151.240;2022-10-26T05:41:48;2.17;;;0.70;;
20794;SDS011;28087;-33.874;151.240;2022-10-26T05:44:25;1.52;;;0.63;;
20794;SDS011;28087;-33.874;151.240;2022-10-26T05:47:02;1.88;;;0.60;;
20794;SDS011;28087;-33.874;151.240;2022-10-26T05:49:39;1.95;;;0.70;;
20794;SDS011;28087;-33.874;151.240;2022-10-26T05:52:15;2.20;;;0.70;;
20794;SDS011;28087;-33.874;151.240;2022-10-26T05:54:51;0.50;;;0.50;;
20794;SDS011;28087;-33.874;151.240;2022-10-26T05:57:26;1.30;;;0.60;;
20794;SDS011;28087;-33.874;151.240;2022-10-26T06:00:05;2.47;;;0.60;;
20794;SDS011;28087;-33.874;151.240;2022-10-26T06:02:47;0.50;;;0.50;;
20794;SDS011;28087;-33.874;151.240;2022-10-26T06:05:34;0.77;;;0.60;;
20794;SDS011;28087;-33.874;151.240;2022-10-26T06:08:16;1.98;;;0.60;;
20794;SDS011;28087;-33.874;151.240;2022-10-26T06:10:52;3.05;;;0.68;;
20794;SDS011;28087;-33.874;151.240;2022-10-26T06:13:29;2.20;;;0.63;;
20794;SDS011;28087;-33.874;151.240;2022-10-26T06:16:09;2.22;;;0.60;;
20794;SDS011;28087;-33.874;151.240;2022-10-26T06:19:04;0.63;;;0.50;;
20794;SDS011;28087;-33.874;151.240;2022-10-26T06:21:55;1.17;;;0.68;;
20794;SDS011;28087;-33.874;151.240;2022-10-26T06:24:38;1.40;;;0.70;;
20794;SDS011;28087;-33.874;151.240;2022-10-26T06:27:22;1.60;;;0.70;;
20794;SDS011;28087;-33.874;151.240;2022-10-26T06:30:04;2.40;;;0.70;;
20794;SDS011;28087;-33.874;151.240;2022-10-26T06:32:44;1.65;;;0.60;;
20794;SDS011;28087;-33.874;151.240;2022-10-26T06:35:42;2.47;;;0.60;;
20794;SDS011;28087;-33.874;151.240;2022-10-26T06:38:25;0.82;;;0.60;;
20794;SDS011;28087;-33.874;151.240;2022-10-26T06:41:01;0.50;;;0.40;;
20794;SDS011;28087;-33.874;151.240;2022-10-26T06:43:37;1.60;;;0.60;;
20794;SDS011;28087;-33.874;151.240;2022-10-26T06:46:19;2.10;;;0.60;;
20794;SDS011;28087;-33.874;151.240;2022-10-26T06:49:07;1.30;;;0.70;;
20794;SDS011;28087;-33.874;151.240;2022-10-26T06:51:55;1.70;;;0.60;;
20794;SDS011;28087;-33.874;151.240;2022-10-26T06:54:39;1.00;;;0.60;;
20794;SDS011;28087;-33.874;151.240;2022-10-26T06:57:22;1.52;;;0.80;;
20794;SDS011;28087;-33.874;151.240;2022-10-26T07:00:03;1.40;;;0.70;;
20794;SDS011;28087;-33.874;151.240;2022-10-26T07:02:40;1.45;;;0.63;;
20794;SDS011;28087;-33.874;151.240;2022-10-26T07:05:18;2.25;;;0.77;;
20794;SDS011;28087;-33.874;151.240;2022-10-26T07:07:53;1.33;;;0.60;;
20794;SDS011;28087;-33.874;151.240;2022-10-26T07:10:29;1.48;;;0.55;;
20794;SDS011;28087;-33.874;151.240;2022-10-26T07:13:08;1.27;;;0.63;;
20794;SDS011;28087;-33.874;151.240;2022-10-26T07:15:44;1.00;;;0.50;;
20794;SDS011;28087;-33.874;151.240;2022-10-26T07:18:19;1.75;;;0.57;;
20794;SDS011;28087;-33.874;151.240;2022-10-26T07:20:57;1.95;;;0.70;;
20794;SDS011;28087;-33.874;151.240;2022-10-26T07:23:34;1.63;;;0.55;;
20794;SDS011;28087;-33.874;151.240;2022-10-26T07:26:09;3.55;;;0.70;;
20794;SDS011;28087;-33.874;151.240;2022-10-26T07:28:47;2.15;;;0.70;;
20794;SDS011;28087;-33.874;151.240;2022-10-26T07:31:24;2.58;;;0.70;;
20794;SDS011;28087;-33.874;151.240;2022-10-26T07:33:59;2.92;;;0.95;;
20794;SDS011;28087;-33.874;151.240;2022-10-26T07:36:36;3.60;;;0.65;;
20794;SDS011;28087;-33.874;151.240;2022-10-26T07:39:11;3.05;;;0.90;;
20794;SDS011;28087;-33.874;151.240;2022-10-26T07:41:46;3.13;;;1.30;;
20794;SDS011;28087;-33.874;151.240;2022-10-26T07:44:21;2.60;;;0.85;;
20794;SDS011;28087;-33.874;151.240;2022-10-26T07:46:57;1.83;;;0.70;;
20794;SDS011;28087;-33.874;151.240;2022-10-26T07:49:32;2.25;;;0.68;;
20794;SDS011;28087;-33.874;151.240;2022-10-26T07:52:12;2.47;;;0.90;;
20794;SDS011;28087;-33.874;151.240;2022-10-26T07:54:48;2.00;;;0.80;;
20794;SDS011;28087;-33.874;151.240;2022-10-26T07:57:26;1.98;;;0.70;;
20794;SDS011;28087;-33.874;151.240;2022-10-26T08:00:02;2.17;;;0.80;;
20794;SDS011;28087;-33.874;151.240;2022-10-26T08:02:39;2.45;;;0.80;;
20794;SDS011;28087;-33.874;151.240;2022-10-26T08:05:14;6.60;;;1.77;;
20794;SDS011;28087;-33.874;151.240;2022-10-26T08:07:52;15.25;;;1.83;;
20794;SDS011;28087;-33.874;151.240;2022-10-26T08:10:27;16.05;;;2.20;;
20794;SDS011;28087;-33.874;151.240;2022-10-26T08:13:03;3.67;;;1.15;;
20794;SDS011;28087;-33.874;151.240;2022-10-26T08:15:39;6.35;;;1.00;;
20794;SDS011;28087;-33.874;151.240;2022-10-26T08:18:14;5.07;;;1.00;;
20794;SDS011;28087;-33.874;151.240;2022-10-26T08:20:51;4.10;;;1.00;;
20794;SDS011;28087;-33.874;151.240;2022-10-26T08:23:41;2.47;;;0.90;;
20794;SDS011;28087;-33.874;151.240;2022-10-26T08:26:16;3.03;;;0.95;;
20794;SDS011;28087;-33.874;151.240;2022-10-26T08:28:51;4.45;;;1.33;;
20794;SDS011;28087;-33.874;151.240;2022-10-26T08:31:26;5.43;;;1.35;;
20794;SDS011;28087;-33.874;151.240;2022-10-26T08:34:02;4.15;;;1.60;;
20794;SDS011;28087;-33.874;151.240;2022-10-26T08:36:37;4.75;;;1.40;;
20794;SDS011;28087;-33.874;151.240;2022-10-26T08:39:15;2.90;;;1.30;;
20794;SDS011;28087;-33.874;151.240;2022-10-26T08:41:51;4.18;;;1.30;;
20794;SDS011;28087;-33.874;151.240;2022-10-26T08:44:34;3.20;;;1.30;;
20794;SDS011;28087;-33.874;151.240;2022-10-26T08:47:14;3.55;;;1.60;;
20794;SDS011;28087;-33.874;151.240;2022-10-26T08:49:53;7.90;;;2.55;;
20794;SDS011;28087;-33.874;151.240;2022-10-26T08:52:35;12.07;;;3.20;;
20794;SDS011;28087;-33.874;151.240;2022-10-26T08:55:18;4.43;;;1.73;;
20794;SDS011;28087;-33.874;151.240;2022-10-26T08:57:57;4.95;;;2.22;;
20794;SDS011;28087;-33.874;151.240;2022-10-26T09:00:37;5.95;;;2.03;;
20794;SDS011;28087;-33.874;151.240;2022-10-26T09:03:13;5.28;;;1.92;;
20794;SDS011;28087;-33.874;151.240;2022-10-26T09:05:54;5.68;;;2.13;;
20794;SDS011;28087;-33.874;151.240;2022-10-26T09:08:45;5.00;;;1.90;;
20794;SDS011;28087;-33.874;151.240;2022-10-26T09:11:44;2.53;;;1.30;;
20794;SDS011;28087;-33.874;151.240;2022-10-26T09:14:29;3.83;;;1.48;;
20794;SDS011;28087;-33.874;151.240;2022-10-26T09:17:14;3.72;;;1.70;;
20794;SDS011;28087;-33.874;151.240;2022-10-26T09:20:11;2.63;;;1.30;;
20794;SDS011;28087;-33.874;151.240;2022-10-26T09:23:06;4.05;;;1.70;;
20794;SDS011;28087;-33.874;151.240;2022-10-26T09:25:53;7.88;;;2.40;;
20794;SDS011;28087;-33.874;151.240;2022-10-26T09:28:33;4.35;;;1.63;;
20794;SDS011;28087;-33.874;151.240;2022-10-26T09:31:12;4.13;;;1.23;;
20794;SDS011;28087;-33.874;151.240;2022-10-26T09:33:50;5.15;;;1.20;;
20794;SDS011;28087;-33.874;151.240;2022-10-26T09:36:27;4.90;;;1.70;;
20794;SDS011;28087;-33.874;151.240;2022-10-26T09:39:10;4.80;;;1.40;;
20794;SDS011;28087;-33.874;151.240;2022-10-26T09:41:52;2.40;;;1.17;;
20794;SDS011;28087;-33.874;151.240;2022-10-26T09:44:33;5.07;;;1.60;;
20794;SDS011;28087;-33.874;151.240;2022-10-26T09:47:13;3.03;;;1.30;;
20794;SDS011;28087;-33.874;151.240;2022-10-26T09:50:12;4.38;;;1.65;;
20794;SDS011;28087;-33.874;151.240;2022-10-26T09:52:53;2.42;;;1.10;;
20794;SDS011;28087;-33.874;151.240;2022-10-26T09:55:29;2.60;;;0.90;;
20794;SDS011;28087;-33.874;151.240;2022-10-26T09:58:08;2.13;;;1.10;;
20794;SDS011;28087;-33.874;151.240;2022-10-26T10:00:55;3.60;;;1.00;;
20794;SDS011;28087;-33.874;151.240;2022-10-26T10:03:30;2.72;;;1.00;;
20794;SDS011;28087;-33.874;151.240;2022-10-26T10:06:16;3.45;;;1.20;;
20794;SDS011;28087;-33.874;151.240;2022-10-26T10:09:03;4.32;;;1.17;;
20794;SDS011;28087;-33.874;151.240;2022-10-26T10:11:43;4.10;;;1.35;;
20794;SDS011;28087;-33.874;151.240;2022-10-26T10:14:24;2.95;;;1.13;;
20794;SDS011;28087;-33.874;151.240;2022-10-26T10:17:15;2.47;;;1.05;;
20794;SDS011;28087;-33.874;151.240;2022-10-26T10:19:54;2.85;;;1.00;;
20794;SDS011;28087;-33.874;151.240;2022-10-26T10:22:53;4.07;;;0.90;;
20794;SDS011;28087;-33.874;151.240;2022-10-26T10:25:33;1.80;;;0.90;;
20794;SDS011;28087;-33.874;151.240;2022-10-26T10:28:18;4.05;;;1.10;;
20794;SDS011;28087;-33.874;151.240;2022-10-26T10:30:55;2.80;;;1.10;;
20794;SDS011;28087;-33.874;151.240;2022-10-26T10:33:34;2.95;;;1.00;;
20794;SDS011;28087;-33.874;151.240;2022-10-26T10:36:14;2.08;;;1.00;;
20794;SDS011;28087;-33.874;151.240;2022-10-26T10:38:51;3.05;;;0.90;;
20794;SDS011;28087;-33.874;151.240;2022-10-26T10:41:29;4.15;;;1.00;;
20794;SDS011;28087;-33.874;151.240;2022-10-26T10:44:19;2.30;;;0.90;;
20794;SDS011;28087;-33.874;151.240;2022-10-26T10:47:00;2.60;;;0.98;;
20794;SDS011;28087;-33.874;151.240;2022-10-26T10:49:39;1.52;;;0.90;;
20794;SDS011;28087;-33.874;151.240;2022-10-26T10:52:21;2.53;;;0.80;;
20794;SDS011;28087;-33.874;151.240;2022-10-26T10:55:14;1.75;;;0.60;;
20794;SDS011;28087;-33.874;151.240;2022-10-26T10:57:59;2.38;;;0.70;;
20794;SDS011;28087;-33.874;151.240;2022-10-26T11:00:42;1.95;;;0.60;;
20794;SDS011;28087;-33.874;151.240;2022-10-26T11:06:21;2.58;;;0.90;;
20794;SDS011;28087;-33.874;151.240;2022-10-26T11:08:59;2.38;;;0.77;;
20794;SDS011;28087;-33.874;151.240;2022-10-26T11:11:38;1.90;;;0.70;;
20794;SDS011;28087;-33.874;151.240;2022-10-26T11:14:17;2.47;;;0.70;;
20794;SDS011;28087;-33.874;151.240;2022-10-26T11:16:56;3.20;;;0.85;;
20794;SDS011;28087;-33.874;151.240;2022-10-26T11:19:39;2.03;;;1.00;;
20794;SDS011;28087;-33.874;151.240;2022-10-26T11:22:20;2.15;;;0.90;;
20794;SDS011;28087;-33.874;151.240;2022-10-26T11:24:58;2.17;;;0.77;;
20794;SDS011;28087;-33.874;151.240;2022-10-26T11:27:38;2.38;;;0.90;;
20794;SDS011;28087;-33.874;151.240;2022-10-26T11:30:19;1.55;;;0.63;;
20794;SDS011;28087;-33.874;151.240;2022-10-26T11:32:58;2.80;;;0.90;;
20794;SDS011;28087;-33.874;151.240;2022-10-26T11:35:39;2.45;;;0.90;;
20794;SDS011;28087;-33.874;151.240;2022-10-26T11:38:21;3.03;;;0.90;;
20794;SDS011;28087;-33.874;151.240;2022-10-26T11:41:24;2.88;;;0.80;;
20794;SDS011;28087;-33.874;151.240;2022-10-26T11:44:04;2.45;;;1.00;;
20794;SDS011;28087;-33.874;151.240;2022-10-26T11:46:46;0.98;;;0.70;;
20794;SDS011;28087;-33.874;151.240;2022-10-26T11:49:27;1.83;;;0.77;;
20794;SDS011;28087;-33.874;151.240;2022-10-26T11:52:09;2.45;;;0.70;;
20794;SDS011;28087;-33.874;151.240;2022-10-26T11:54:50;1.67;;;0.85;;
20794;SDS011;28087;-33.874;151.240;2022-10-26T11:57:28;2.17;;;0.88;;
20794;SDS011;28087;-33.874;151.240;2022-10-26T12:00:06;3.08;;;0.88;;
20794;SDS011;28087;-33.874;151.240;2022-10-26T12:02:48;1.00;;;0.70;;
20794;SDS011;28087;-33.874;151.240;2022-10-26T12:05:31;3.25;;;0.88;;
20794;SDS011;28087;-33.874;151.240;2022-10-26T12:08:14;2.70;;;0.90;;
20794;SDS011;28087;-33.874;151.240;2022-10-26T12:10:57;1.80;;;0.93;;
20794;SDS011;28087;-33.874;151.240;2022-10-26T12:13:41;2.33;;;0.88;;
20794;SDS011;28087;-33.874;151.240;2022-10-26T12:16:20;4.07;;;0.93;;
20794;SDS011;28087;-33.874;151.240;2022-10-26T12:19:03;2.95;;;0.90;;
20794;SDS011;28087;-33.874;151.240;2022-10-26T12:21:45;2.85;;;0.80;;
20794;SDS011;28087;-33.874;151.240;2022-10-26T12:24:25;3.08;;;0.90;;
20794;SDS011;28087;-33.874;151.240;2022-10-26T12:27:24;2.10;;;0.90;;
20794;SDS011;28087;-33.874;151.240;2022-10-26T12:30:21;3.33;;;0.90;;
20794;SDS011;28087;-33.874;151.240;2022-10-26T12:32:58;2.45;;;0.90;;
20794;SDS011;28087;-33.874;151.240;2022-10-26T12:35:36;2.40;;;1.00;;
20794;SDS011;28087;-33.874;151.240;2022-10-26T12:41:33;1.65;;;0.88;;
20794;SDS011;28087;-33.874;151.240;2022-10-26T12:47:58;3.97;;;0.90;;
20794;SDS011;28087;-33.874;151.240;2022-10-26T12:50:23;3.45;;;1.10;;
20794;SDS011;28087;-33.874;151.240;2022-10-26T12:52:59;2.45;;;0.90;;
20794;SDS011;28087;-33.874;151.240;2022-10-26T13:01:57;2.10;;;0.90;;
20794;SDS011;28087;-33.874;151.240;2022-10-26T13:08:12;2.17;;;0.80;;
20794;SDS011;28087;-33.874;151.240;2022-10-26T13:10:58;1.85;;;0.88;;
20794;SDS011;28087;-33.874;151.240;2022-10-26T13:13:36;5.82;;;1.05;;
20794;SDS011;28087;-33.874;151.240;2022-10-26T13:16:13;2.10;;;0.82;;
20794;SDS011;28087;-33.874;151.240;2022-10-26T13:18:52;2.75;;;0.75;;
20794;SDS011;28087;-33.874;151.240;2022-10-26T13:21:29;3.03;;;0.80;;
20794;SDS011;28087;-33.874;151.240;2022-10-26T13:24:17;5.18;;;1.25;;
20794;SDS011;28087;-33.874;151.240;2022-10-26T13:30:19;4.70;;;0.95;;
20794;SDS011;28087;-33.874;151.240;2022-10-26T13:33:10;3.88;;;1.10;;
20794;SDS011;28087;-33.874;151.240;2022-10-26T13:36:05;3.17;;;0.90;;
20794;SDS011;28087;-33.874;151.240;2022-10-26T13:38:50;2.72;;;1.00;;
20794;SDS011;28087;-33.874;151.240;2022-10-26T13:41:29;3.10;;;0.90;;
20794;SDS011;28087;-33.874;151.240;2022-10-26T13:44:19;3.95;;;0.90;;
20794;SDS011;28087;-33.874;151.240;2022-10-26T13:47:00;1.73;;;0.95;;
20794;SDS011;28087;-33.874;151.240;2022-10-26T13:49:38;2.72;;;1.00;;
20794;SDS011;28087;-33.874;151.240;2022-10-26T13:52:18;2.38;;;0.90;;
20794;SDS011;28087;-33.874;151.240;2022-10-26T13:55:00;2.53;;;0.77;;
20794;SDS011;28087;-33.874;151.240;2022-10-26T13:57:42;2.28;;;0.70;;
20794;SDS011;28087;-33.874;151.240;2022-10-26T14:00:22;2.70;;;0.80;;
20794;SDS011;28087;-33.874;151.240;2022-10-26T14:02:58;3.05;;;0.80;;
20794;SDS011;28087;-33.874;151.240;2022-10-26T14:05:44;1.45;;;0.70;;
20794;SDS011;28087;-33.874;151.240;2022-10-26T14:08:25;3.28;;;1.10;;
20794;SDS011;28087;-33.874;151.240;2022-10-26T14:11:00;1.88;;;0.73;;
20794;SDS011;28087;-33.874;151.240;2022-10-26T14:13:37;1.30;;;0.70;;
20794;SDS011;28087;-33.874;151.240;2022-10-26T14:16:13;2.13;;;0.80;;
20794;SDS011;28087;-33.874;151.240;2022-10-26T14:18:51;2.20;;;0.68;;
20794;SDS011;28087;-33.874;151.240;2022-10-26T14:21:26;2.97;;;0.60;;
20794;SDS011;28087;-33.874;151.240;2022-10-26T14:24:17;1.50;;;0.80;;
20794;SDS011;28087;-33.874;151.240;2022-10-26T14:27:14;1.67;;;0.77;;
20794;SDS011;28087;-33.874;151.240;2022-10-26T14:29:52;2.33;;;0.80;;
20794;SDS011;28087;-33.874;151.240;2022-10-26T14:32:48;1.83;;;0.77;;
20794;SDS011;28087;-33.874;151.240;2022-10-26T14:35:24;1.70;;;0.70;;
20794;SDS011;28087;-33.874;151.240;2022-10-26T14:38:01;2.97;;;0.70;;
20794;SDS011;28087;-33.874;151.240;2022-10-26T14:40:40;1.95;;;0.80;;
20794;SDS011;28087;-33.874;151.240;2022-10-26T14:43:16;1.77;;;0.60;;
20794;SDS011;28087;-33.874;151.240;2022-10-26T14:45:54;0.60;;;0.60;;
20794;SDS011;28087;-33.874;151.240;2022-10-26T14:48:30;1.95;;;0.70;;
20794;SDS011;28087;-33.874;151.240;2022-10-26T14:51:07;1.77;;;0.70;;
20794;SDS011;28087;-33.874;151.240;2022-10-26T14:53:48;1.25;;;0.70;;
20794;SDS011;28087;-33.874;151.240;2022-10-26T14:56:29;2.17;;;0.80;;
20794;SDS011;28087;-33.874;151.240;2022-10-26T14:59:18;1.75;;;0.55;;
20794;SDS011;28087;-33.874;151.240;2022-10-26T15:01:57;1.00;;;0.63;;
20794;SDS011;28087;-33.874;151.240;2022-10-26T15:04:38;1.48;;;0.70;;
20794;SDS011;28087;-33.874;151.240;2022-10-26T15:07:14;3.20;;;0.80;;
20794;SDS011;28087;-33.874;151.240;2022-10-26T15:09:51;1.08;;;0.73;;
20794;SDS011;28087;-33.874;151.240;2022-10-26T15:12:30;1.80;;;0.68;;
20794;SDS011;28087;-33.874;151.240;2022-10-26T15:15:09;2.25;;;0.70;;
20794;SDS011;28087;-33.874;151.240;2022-10-26T15:17:54;2.83;;;0.60;;
20794;SDS011;28087;-33.874;151.240;2022-10-26T15:20:34;1.45;;;0.70;;
20794;SDS011;28087;-33.874;151.240;2022-10-26T15:23:12;2.70;;;0.70;;
20794;SDS011;28087;-33.874;151.240;2022-10-26T15:25:49;0.77;;;0.50;;
20794;SDS011;28087;-33.874;151.240;2022-10-26T15:28:30;0.60;;;0.47;;
20794;SDS011;28087;-33.874;151.240;2022-10-26T15:31:27;4.72;;;0.70;;
20794;SDS011;28087;-33.874;151.240;2022-10-26T15:34:14;2.65;;;0.70;;
20794;SDS011;28087;-33.874;151.240;2022-10-26T15:36:49;1.15;;;0.63;;
20794;SDS011;28087;-33.874;151.240;2022-10-26T15:39:25;2.63;;;0.70;;
20794;SDS011;28087;-33.874;151.240;2022-10-26T15:42:02;3.00;;;0.70;;
20794;SDS011;28087;-33.874;151.240;2022-10-26T15:44:49;1.88;;;0.70;;